Time;durP1;ratioP1;P1;durP2;ratioP2;P2;SDS_P1;SDS_P2;PMS_P1;PMS_P2;Temp;Humidity;BMP_temperature;BMP_pressure;BME280_temperature;BME280_humidity;BME280_pressure;Samples;Min_cycle;Max_cycle;Signal;HPM_P1;HPM_P2
2021/03/04 00:00:49;;;;;;;;;88.25;61.75;;;;;3.16;73.08;100433.91;4992640;28;8856;-65
2021/03/04 00:03:16;;;;;;;;;82.75;61.50;;;;;3.25;71.75;100439.03;4991895;28;8844;-65
2021/03/04 00:05:46;;;;;;;;;83.50;61.25;;;;;3.21;72.35;100440.00;4992320;28;8847;-65
2021/03/04 00:08:14;;;;;;;;;85.00;61.50;;;;;2.86;73.40;100445.94;4993541;28;8860;-65
2021/03/04 00:10:42;;;;;;;;;79.25;57.50;;;;;2.69;73.64;100433.00;4993361;28;8864;-65
2021/03/04 00:13:09;;;;;;;;;84.50;60.00;;;;;2.19;75.99;100426.75;4993051;28;8852;-65
2021/03/04 00:15:36;;;;;;;;;77.25;57.25;;;;;2.18;75.91;100422.31;4992162;28;8840;-65
2021/03/04 00:18:05;;;;;;;;;90.25;66.50;;;;;2.50;75.32;100420.94;4993143;28;8863;-65
2021/03/04 00:20:34;;;;;;;;;83.50;58.50;;;;;3.26;71.90;100408.91;4992442;28;8848;-65
2021/03/04 00:23:01;;;;;;;;;71.75;53.00;;;;;3.80;69.26;100405.13;4988824;28;8840;-65
2021/03/04 00:25:34;;;;;;;;;70.00;51.50;;;;;3.96;68.89;100395.03;4991896;28;8840;-65
2021/03/04 00:28:04;;;;;;;;;74.75;51.25;;;;;3.72;69.33;100397.34;4990844;28;8913;-65
2021/03/04 00:30:31;;;;;;;;;73.75;56.00;;;;;3.47;70.21;100385.50;4967181;28;8864;-65
2021/03/04 00:32:58;;;;;;;;;74.50;55.50;;;;;3.45;69.85;100393.50;4983377;28;8861;-65
2021/03/04 00:35:25;;;;;;;;;95.25;66.25;;;;;3.10;71.03;100391.56;4991361;28;8966;-65
2021/03/04 00:37:52;;;;;;;;;81.25;60.25;;;;;3.39;70.64;100392.75;4977611;28;8839;-65
2021/03/04 00:40:22;;;;;;;;;79.50;61.25;;;;;3.71;69.05;100384.97;4986773;28;8883;-65
2021/03/04 00:42:49;;;;;;;;;75.75;53.00;;;;;4.08;67.46;100377.91;4992519;28;8848;-66
2021/03/04 00:45:19;;;;;;;;;62.00;45.00;;;;;4.15;67.05;100375.09;4993341;28;8863;-65
2021/03/04 00:48:07;;;;;;;;;65.75;51.25;;;;;4.32;66.66;100368.50;4992617;28;8974;-65
2021/03/04 00:50:35;;;;;;;;;71.00;53.00;;;;;4.64;66.32;100367.66;4991878;28;8887;-65
2021/03/04 00:53:03;;;;;;;;;79.75;58.00;;;;;4.68;66.19;100360.47;4975831;28;8840;-64
2021/03/04 00:55:31;;;;;;;;;74.75;56.25;;;;;4.95;65.50;100361.50;4979873;28;8855;-65
2021/03/04 00:58:00;;;;;;;;;79.75;56.75;;;;;4.83;65.35;100360.94;4992814;28;8899;-65
2021/03/04 01:00:27;;;;;;;;;73.25;54.00;;;;;5.11;63.81;100356.63;4972128;28;8855;-65
2021/03/04 01:02:56;;;;;;;;;78.50;56.00;;;;;5.35;62.31;100366.59;4993203;28;8926;-65
2021/03/04 01:05:24;;;;;;;;;75.75;54.25;;;;;5.28;62.87;100355.22;4994722;28;8879;-65
2021/03/04 01:07:52;;;;;;;;;74.00;54.25;;;;;5.28;63.00;100349.03;4995844;28;8840;-65
2021/03/04 01:10:36;;;;;;;;;80.00;60.50;;;;;5.25;63.01;100346.47;4993036;28;8854;-65
2021/03/04 01:13:04;;;;;;;;;73.75;54.50;;;;;4.95;64.42;100343.78;4994481;28;8836;-65
2021/03/04 01:15:32;;;;;;;;;79.25;58.25;;;;;4.76;65.73;100329.22;4990355;28;8836;-65
2021/03/04 01:18:02;;;;;;;;;71.50;53.00;;;;;4.84;65.25;100333.44;4994750;28;8967;-65
2021/03/04 01:20:30;;;;;;;;;80.25;55.25;;;;;4.82;64.80;100329.94;4985730;28;8876;-65
2021/03/04 01:22:59;;;;;;;;;71.50;53.75;;;;;4.83;64.05;100323.69;4987900;28;8882;-65
2021/03/04 01:25:26;;;;;;;;;72.25;53.75;;;;;4.71;65.85;100320.50;4995895;28;8844;-65
2021/03/04 01:27:53;;;;;;;;;71.75;52.75;;;;;4.49;66.91;100317.53;4995097;28;8848;-65
2021/03/04 01:30:32;;;;;;;;;66.00;52.25;;;;;4.65;66.18;100316.22;4993979;28;8864;-65
2021/03/04 01:33:11;;;;;;;;;77.00;54.25;;;;;4.38;67.29;100304.53;4991021;28;8836;-65
2021/03/04 01:35:38;;;;;;;;;64.50;50.25;;;;;4.32;67.88;100302.06;4982376;28;8868;-65
2021/03/04 01:38:05;;;;;;;;;74.00;52.75;;;;;4.47;66.46;100296.31;4978888;28;8883;-66
2021/03/04 01:40:32;;;;;;;;;72.75;52.00;;;;;4.68;66.06;100293.97;4995007;28;8915;-65
2021/03/04 01:42:59;;;;;;;;;77.00;53.25;;;;;4.72;66.20;100290.34;4980568;28;8870;-66
2021/03/04 01:45:26;;;;;;;;;80.50;56.00;;;;;4.57;66.34;100287.16;4995828;28;8963;-65
2021/03/04 01:47:55;;;;;;;;;74.00;56.25;;;;;4.51;66.95;100281.16;4995694;28;8840;-65
2021/03/04 01:50:24;;;;;;;;;70.75;50.25;;;;;4.62;65.87;100279.06;4995357;28;8958;-65
2021/03/04 01:52:52;;;;;;;;;72.50;53.50;;;;;4.53;66.13;100282.88;4985798;28;8848;-65
2021/03/04 01:55:20;;;;;;;;;69.25;55.00;;;;;4.60;66.62;100275.56;4995765;28;8918;-66
2021/03/04 01:57:48;;;;;;;;;77.50;54.00;;;;;4.80;66.10;100277.69;4995177;28;8844;-65
2021/03/04 02:00:19;;;;;;;;;66.50;49.00;;;;;4.88;65.01;100275.69;4993342;28;8864;-65
2021/03/04 02:02:48;;;;;;;;;70.00;52.00;;;;;4.89;64.88;100268.56;4994030;28;8939;-65
2021/03/04 02:05:17;;;;;;;;;75.50;56.25;;;;;4.81;65.88;100260.78;4994688;28;8872;-65
2021/03/04 02:08:04;;;;;;;;;75.75;56.25;;;;;4.64;65.89;100261.28;4995191;28;8946;-65
2021/03/04 02:10:42;;;;;;;;;63.75;49.75;;;;;4.71;65.81;100259.31;4994606;28;8938;-65
2021/03/04 02:13:30;;;;;;;;;75.25;54.25;;;;;4.66;65.08;100258.56;4992350;28;8874;-65
2021/03/04 02:16:32;;;;;;;;;69.50;52.00;;;;;4.65;65.78;100257.69;4989184;28;8930;-66
2021/03/04 02:19:42;;;;;;;;;74.00;57.75;;;;;4.72;65.84;100256.63;4994697;28;8848;-65
2021/03/04 02:22:47;;;;;;;;;62.25;46.25;;;;;4.75;66.23;100253.00;4993919;28;8862;-65
2021/03/04 02:25:24;;;;;;;;;71.25;53.00;;;;;4.58;66.39;100248.13;4994317;28;8852;-66
2021/03/04 02:27:54;;;;;;;;;75.25;54.00;;;;;4.68;66.39;100252.28;4993506;28;8852;-65
2021/03/04 02:30:27;;;;;;;;;68.75;52.75;;;;;4.64;66.16;100239.16;4989780;28;8964;-64
2021/03/04 02:33:21;;;;;;;;;64.00;48.75;;;;;4.61;66.15;100240.09;4990239;28;8875;-65
2021/03/04 02:35:49;;;;;;;;;68.25;50.00;;;;;4.64;66.00;100241.81;4990037;28;8943;-66
2021/03/04 02:38:20;;;;;;;;;75.25;54.75;;;;;4.65;65.55;100236.44;4991843;28;8859;-65
2021/03/04 02:40:52;;;;;;;;;80.75;60.75;;;;;4.70;66.13;100238.97;4997855;28;8843;-65
2021/03/04 02:43:24;;;;;;;;;75.25;60.00;;;;;4.44;67.02;100243.22;4991390;28;9549;-66
2021/03/04 02:45:52;;;;;;;;;79.25;51.75;;;;;4.38;67.54;100238.06;4994771;28;8832;-65
2021/03/04 02:48:21;;;;;;;;;73.50;53.75;;;;;4.43;66.52;100227.31;4993880;28;8844;-64
2021/03/04 02:50:52;;;;;;;;;71.50;56.00;;;;;4.34;66.97;100228.44;4993521;28;8841;-63
2021/03/04 02:53:21;;;;;;;;;74.25;49.50;;;;;4.47;67.01;100221.00;4993497;28;8874;-64
2021/03/04 02:55:50;;;;;;;;;74.50;53.50;;;;;4.34;67.51;100223.09;4992482;28;8848;-65
2021/03/04 02:58:18;;;;;;;;;72.00;54.50;;;;;4.58;66.85;100218.88;4993613;28;8840;-65
2021/03/04 03:00:47;;;;;;;;;70.50;48.00;;;;;4.67;65.40;100223.09;4978891;28;8855;-65
2021/03/04 03:03:17;;;;;;;;;72.00;54.00;;;;;4.65;65.80;100214.28;4976572;28;8859;-65
2021/03/04 03:05:46;;;;;;;;;69.25;50.75;;;;;4.55;66.44;100219.84;5004472;28;8840;-64
2021/03/04 03:08:17;;;;;;;;;75.00;56.00;;;;;4.68;64.57;100214.19;4993591;28;8962;-65
2021/03/04 03:10:47;;;;;;;;;73.25;53.50;;;;;4.62;66.25;100217.91;4993247;28;8844;-65
2021/03/04 03:13:19;;;;;;;;;73.00;56.00;;;;;4.70;65.56;100217.69;4993002;28;8863;-65
2021/03/04 03:15:46;;;;;;;;;70.25;54.25;;;;;4.87;64.88;100207.44;4992738;28;8833;-65
2021/03/04 03:18:14;;;;;;;;;78.50;54.25;;;;;5.19;63.42;100209.09;4993852;28;8854;-65
2021/03/04 03:20:41;;;;;;;;;46.75;31.75;;;;;4.77;64.32;100209.47;4992942;28;8848;-65
2021/03/04 03:23:08;;;;;;;;;65.50;52.50;;;;;4.85;63.90;100209.25;4993198;28;8852;-65
2021/03/04 03:25:35;;;;;;;;;64.75;51.25;;;;;4.67;64.74;100202.69;4987128;28;9648;-65
2021/03/04 03:28:02;;;;;;;;;66.00;51.75;;;;;4.72;64.35;100200.75;4981692;28;8852;-65
2021/03/04 03:30:30;;;;;;;;;60.75;47.50;;;;;4.52;66.06;100200.47;4993897;28;8864;-65
2021/03/04 03:33:14;;;;;;;;;69.25;50.50;;;;;4.47;65.26;100192.59;4988755;28;8852;-65
2021/03/04 03:35:42;;;;;;;;;67.25;50.25;;;;;4.38;65.52;100200.84;4992826;28;8856;-65
2021/03/04 03:38:12;;;;;;;;;66.75;55.00;;;;;4.12;67.75;100191.81;4993163;28;8852;-65
2021/03/04 03:40:45;;;;;;;;;65.75;49.00;;;;;4.09;67.48;100194.56;4991687;28;8864;-65
2021/03/04 03:43:17;;;;;;;;;71.50;55.25;;;;;3.92;67.43;100197.66;4993850;28;8868;-65
2021/03/04 03:45:47;;;;;;;;;77.00;57.50;;;;;3.68;68.51;100199.13;4992118;28;8840;-64
2021/03/04 03:48:18;;;;;;;;;76.75;58.75;;;;;3.55;69.25;100187.09;4992685;28;8962;-65
2021/03/04 03:50:52;;;;;;;;;72.75;56.75;;;;;3.60;70.49;100186.97;4993446;28;8866;-65
2021/03/04 03:53:20;;;;;;;;;76.25;58.75;;;;;3.29;70.83;100190.38;4992932;28;8934;-65
2021/03/04 03:55:53;;;;;;;;;77.75;58.50;;;;;3.51;70.36;100190.75;4992740;28;8848;-65
2021/03/04 03:58:27;;;;;;;;;73.00;56.00;;;;;3.56;69.78;100190.63;4993379;28;8880;-65
2021/03/04 04:00:56;;;;;;;;;73.25;53.75;;;;;3.40;70.54;100187.50;4993870;28;8868;-65
2021/03/04 04:03:24;;;;;;;;;73.00;54.00;;;;;3.28;71.71;100181.53;4992575;28;8886;-65
2021/03/04 04:05:52;;;;;;;;;81.00;55.75;;;;;3.20;71.85;100187.94;4992121;28;8837;-65
2021/03/04 04:08:23;;;;;;;;;70.50;50.50;;;;;3.60;70.47;100169.25;4993636;28;8841;-65
2021/03/04 04:10:51;;;;;;;;;71.75;50.75;;;;;3.81;68.48;100173.16;4993325;28;8866;-65
2021/03/04 04:13:22;;;;;;;;;77.75;54.00;;;;;3.84;68.74;100178.38;4993068;28;8949;-65
2021/03/04 04:15:51;;;;;;;;;73.75;56.50;;;;;3.85;69.23;100173.97;4992622;28;8848;-65
2021/03/04 04:18:19;;;;;;;;;78.00;54.25;;;;;3.81;67.90;100169.63;4993812;28;8858;-65
2021/03/04 04:20:49;;;;;;;;;71.25;53.50;;;;;3.76;68.24;100164.44;4992639;28;8824;-65
2021/03/04 04:23:19;;;;;;;;;71.00;53.25;;;;;3.77;68.13;100160.00;4993382;28;8847;-65
2021/03/04 04:25:54;;;;;;;;;78.25;57.75;;;;;3.76;68.92;100158.25;5008690;28;8886;-65
2021/03/04 04:28:22;;;;;;;;;62.25;51.25;;;;;3.73;68.23;100157.41;4993779;28;8820;-65
2021/03/04 04:30:50;;;;;;;;;75.25;56.50;;;;;3.60;68.38;100155.97;4992872;28;8848;-65
2021/03/04 04:33:17;;;;;;;;;71.50;50.50;;;;;3.58;68.96;100155.19;4993405;28;9614;-65
2021/03/04 04:35:45;;;;;;;;;76.25;53.50;;;;;3.47;69.68;100154.56;4993271;28;8848;-65
2021/03/04 04:38:13;;;;;;;;;79.75;58.25;;;;;3.57;68.99;100153.41;4997285;28;8848;-65
2021/03/04 04:40:41;;;;;;;;;74.00;57.00;;;;;3.75;68.38;100152.06;4995970;28;8872;-65
2021/03/04 04:43:09;;;;;;;;;78.75;60.50;;;;;3.72;68.42;100149.50;4996282;28;8858;-65
2021/03/04 04:45:37;;;;;;;;;81.00;58.00;;;;;3.69;68.61;100137.19;4996971;28;8876;-65
2021/03/04 04:48:06;;;;;;;;;84.75;61.25;;;;;3.78;68.79;100136.06;4996112;28;8974;-65
2021/03/04 04:50:34;;;;;;;;;64.00;44.50;;;;;3.72;69.67;100130.91;4995688;28;8890;-65
2021/03/04 04:53:01;;;;;;;;;71.75;55.25;;;;;3.71;69.49;100130.06;4996912;28;8947;-65
2021/03/04 04:55:29;;;;;;;;;80.50;57.00;;;;;3.67;69.92;100123.06;4996844;28;9840;-65
2021/03/04 04:57:57;;;;;;;;;75.50;54.00;;;;;3.61;70.17;100125.03;4997284;28;8864;-65
2021/03/04 05:00:24;;;;;;;;;86.25;59.50;;;;;3.66;69.14;100116.03;4997377;28;8844;-65
2021/03/04 05:02:51;;;;;;;;;79.25;60.50;;;;;3.68;69.49;100116.81;4994531;28;8832;-65
2021/03/04 05:05:29;;;;;;;;;76.50;62.25;;;;;3.76;69.78;100110.44;4996958;28;8864;-65
2021/03/04 05:07:56;;;;;;;;;88.25;63.75;;;;;3.70;69.56;100111.50;4996081;28;8852;-65
2021/03/04 05:10:24;;;;;;;;;77.75;60.50;;;;;3.62;70.07;100103.72;4997199;28;8828;-65
2021/03/04 05:12:51;;;;;;;;;85.25;60.75;;;;;3.53;69.72;100090.72;4995931;28;8917;-65
2021/03/04 05:15:20;;;;;;;;;77.75;57.50;;;;;3.54;69.93;100097.75;4987967;28;8863;-65
2021/03/04 05:17:47;;;;;;;;;84.00;59.50;;;;;3.59;70.21;100097.63;4996597;28;8933;-65
2021/03/04 05:20:15;;;;;;;;;76.00;57.50;;;;;3.63;69.55;100088.66;4995969;28;8866;-65
2021/03/04 05:22:44;;;;;;;;;80.00;57.50;;;;;3.59;69.37;100093.19;4979654;28;8931;-65
2021/03/04 05:25:12;;;;;;;;;82.00;58.50;;;;;3.60;69.80;100097.56;4996420;28;8856;-65
2021/03/04 05:27:39;;;;;;;;;73.00;55.50;;;;;3.54;70.13;100086.25;4996222;28;9573;-65
2021/03/04 05:30:07;;;;;;;;;99.75;69.25;;;;;3.54;70.09;100084.47;4996726;28;8950;-65
2021/03/04 05:32:35;;;;;;;;;80.75;58.25;;;;;3.81;70.13;100077.53;4995536;28;8856;-65
2021/03/04 05:35:03;;;;;;;;;80.25;61.25;;;;;3.71;69.85;100076.03;4995969;28;8844;-65
2021/03/04 05:37:30;;;;;;;;;77.50;58.75;;;;;3.76;69.73;100073.28;4996001;28;8836;-65
2021/03/04 05:39:57;;;;;;;;;70.25;53.50;;;;;3.73;69.56;100071.56;4996343;28;8954;-65
2021/03/04 05:42:24;;;;;;;;;74.00;56.75;;;;;3.65;69.74;100074.44;4995043;28;8832;-65
2021/03/04 05:44:52;;;;;;;;;71.00;54.50;;;;;3.70;70.08;100064.56;5011728;28;8852;-65
2021/03/04 05:47:19;;;;;;;;;79.50;56.50;;;;;3.78;69.15;100071.44;4994120;28;8848;-65
2021/03/04 05:50:08;;;;;;;;;77.25;59.75;;;;;3.76;69.53;100067.97;4994556;28;8884;-65
2021/03/04 05:52:44;;;;;;;;;79.00;61.25;;;;;3.89;68.88;100069.34;4994517;28;8896;-65
2021/03/04 05:55:12;;;;;;;;;69.25;55.50;;;;;3.83;69.54;100067.75;4995219;28;8856;-65
2021/03/04 05:57:45;;;;;;;;;75.50;55.00;;;;;3.87;69.49;100072.06;4994793;28;8832;-65
2021/03/04 06:00:14;;;;;;;;;77.75;57.00;;;;;3.98;68.73;100074.44;4994923;28;8844;-65
2021/03/04 06:02:45;;;;;;;;;83.25;56.75;;;;;4.03;68.94;100071.63;4995578;28;8862;-65
2021/03/04 06:05:13;;;;;;;;;74.25;57.00;;;;;4.09;68.38;100067.00;4994175;28;8833;-65
2021/03/04 06:07:45;;;;;;;;;74.00;57.00;;;;;4.17;68.71;100074.75;4995714;28;9538;-65
2021/03/04 06:10:15;;;;;;;;;75.25;55.50;;;;;4.12;69.09;100072.22;4996004;28;8848;-65
2021/03/04 06:12:43;;;;;;;;;77.00;59.50;;;;;4.30;68.23;100075.28;4994490;28;8856;-65
2021/03/04 06:15:11;;;;;;;;;83.50;62.75;;;;;4.36;68.30;100069.78;4995635;28;8879;-65
2021/03/04 06:17:39;;;;;;;;;85.50;60.00;;;;;4.29;67.97;100068.19;4994796;28;8832;-65
2021/03/04 06:20:09;;;;;;;;;87.75;63.75;;;;;4.34;67.53;100069.81;4994994;28;8879;-65
2021/03/04 06:22:38;;;;;;;;;77.75;57.00;;;;;4.27;67.98;100070.06;4995603;28;9592;-65
2021/03/04 06:25:11;;;;;;;;;75.50;59.00;;;;;4.31;68.37;100066.38;4993855;28;9640;-66
2021/03/04 06:27:41;;;;;;;;;74.00;56.75;;;;;4.42;68.09;100069.56;4995431;28;8939;-65
2021/03/04 06:30:10;;;;;;;;;78.50;60.25;;;;;4.40;67.62;100066.13;4994867;28;9644;-65
2021/03/04 06:32:40;;;;;;;;;83.25;61.00;;;;;4.43;67.75;100059.84;4995125;28;8883;-65
2021/03/04 06:35:10;;;;;;;;;77.00;58.75;;;;;4.51;67.39;100064.00;4994364;28;8922;-64
2021/03/04 06:37:44;;;;;;;;;83.25;58.25;;;;;4.32;67.97;100061.03;4994037;28;8995;-65
2021/03/04 06:40:33;;;;;;;;;80.25;60.00;;;;;4.57;67.29;100058.47;4995164;28;8853;-65
2021/03/04 06:43:00;;;;;;;;;80.00;57.00;;;;;4.72;67.14;100053.59;4994988;28;8862;-65
2021/03/04 06:45:32;;;;;;;;;79.00;59.25;;;;;4.52;67.48;100065.72;4994883;28;8945;-65
2021/03/04 06:48:22;;;;;;;;;68.00;55.00;;;;;4.80;67.18;100055.09;4994675;28;8860;-65
2021/03/04 06:51:00;;;;;;;;;74.00;56.75;;;;;4.94;66.91;100056.44;4994133;28;8836;-65
2021/03/04 06:53:30;;;;;;;;;68.50;49.50;;;;;4.92;66.13;100066.25;4995062;28;8832;-65
2021/03/04 06:56:06;;;;;;;;;78.50;57.00;;;;;4.87;66.02;100060.22;4994485;28;8855;-65
2021/03/04 06:58:41;;;;;;;;;77.50;57.75;;;;;4.99;65.76;100067.81;4993742;28;8872;-65
2021/03/04 07:01:16;;;;;;;;;76.75;55.75;;;;;5.00;65.31;100066.88;4994094;28;8848;-64
2021/03/04 07:03:54;;;;;;;;;74.25;56.00;;;;;4.96;66.13;100062.59;4994746;28;8848;-65
2021/03/04 07:06:37;;;;;;;;;80.75;59.00;;;;;4.93;66.00;100063.56;4980132;28;8848;-65
2021/03/04 07:09:05;;;;;;;;;71.25;53.75;;;;;4.92;66.33;100055.63;5010027;28;8957;-65
2021/03/04 07:11:36;;;;;;;;;81.25;61.00;;;;;5.01;66.69;100056.19;4992636;28;8848;-65
2021/03/04 07:14:06;;;;;;;;;81.00;59.00;;;;;4.95;66.09;100053.75;4994417;28;8856;-65
2021/03/04 07:16:37;;;;;;;;;84.00;61.00;;;;;5.14;66.05;100056.66;4994217;28;8840;-65
2021/03/04 07:19:14;;;;;;;;;82.75;60.00;;;;;5.25;66.42;100048.31;4994225;28;8934;-65
2021/03/04 07:21:47;;;;;;;;;81.25;60.75;;;;;5.38;65.58;100043.44;5009603;28;8864;-66
2021/03/04 07:24:15;;;;;;;;;76.00;58.75;;;;;5.49;65.14;100043.94;4994482;28;8862;-65
2021/03/04 07:26:42;;;;;;;;;82.25;59.25;;;;;5.61;62.57;100035.53;4993059;28;8849;-65
2021/03/04 07:29:12;;;;;;;;;80.00;57.00;;;;;5.59;63.34;100031.16;4993518;28;8824;-65
2021/03/04 07:31:43;;;;;;;;;84.25;62.75;;;;;5.61;64.89;100027.53;4980904;28;8858;-65
2021/03/04 07:34:19;;;;;;;;;93.50;62.50;;;;;5.73;64.15;100020.88;4973454;28;8931;-65
2021/03/04 07:36:54;;;;;;;;;86.25;60.75;;;;;5.81;65.56;100026.78;4993950;28;8868;-65
2021/03/04 07:39:40;;;;;;;;;119.25;81.25;;;;;5.68;65.65;100025.50;4992979;28;8876;-65
2021/03/04 07:42:21;;;;;;;;;93.00;68.75;;;;;5.40;65.73;100029.16;4994119;28;8876;-65
2021/03/04 07:44:51;;;;;;;;;88.75;60.25;;;;;5.58;65.61;100022.31;4993861;28;8860;-65
2021/03/04 07:47:31;;;;;;;;;84.50;63.75;;;;;5.67;66.52;100021.97;4994008;28;9630;-65
2021/03/04 07:50:13;;;;;;;;;75.75;59.00;;;;;5.89;65.76;100027.38;4993965;28;8844;-65
2021/03/04 07:52:41;;;;;;;;;81.50;59.25;;;;;6.06;65.88;100023.28;4994155;28;8998;-65
2021/03/04 07:55:12;;;;;;;;;80.25;59.25;;;;;6.26;65.12;100020.69;4994496;28;8910;-65
2021/03/04 07:57:45;;;;;;;;;71.25;53.75;;;;;6.60;60.61;100004.22;4993156;28;8971;-64
2021/03/04 08:00:17;;;;;;;;;67.00;51.25;;;;;6.98;57.61;100008.94;4993607;28;8860;-65
2021/03/04 08:02:45;;;;;;;;;63.75;48.25;;;;;7.07;56.74;100011.22;4994354;28;8848;-65
2021/03/04 08:05:16;;;;;;;;;66.75;48.25;;;;;7.10;55.72;100012.91;5025755;28;8840;-65
2021/03/04 08:07:50;;;;;;;;;70.00;52.00;;;;;7.08;58.15;100004.06;4993987;28;8826;-65
2021/03/04 08:10:23;;;;;;;;;65.75;47.00;;;;;7.29;58.10;99996.94;4993931;28;8882;-65
2021/03/04 08:13:00;;;;;;;;;62.00;46.50;;;;;7.44;56.47;99998.97;4996550;28;8862;-65
2021/03/04 08:15:35;;;;;;;;;59.75;46.75;;;;;7.61;55.27;99993.75;4988737;28;8869;-65
2021/03/04 08:18:14;;;;;;;;;65.00;51.00;;;;;7.63;55.84;99997.22;4996617;28;8843;-65
2021/03/04 08:20:41;;;;;;;;;60.25;48.25;;;;;7.73;55.44;99991.47;4997804;28;8848;-65
2021/03/04 08:23:09;;;;;;;;;59.75;47.00;;;;;7.96;53.47;99983.28;4997608;28;8856;-65
2021/03/04 08:25:37;;;;;;;;;63.50;48.00;;;;;8.10;54.57;99986.16;4996420;28;9631;-65
2021/03/04 08:28:05;;;;;;;;;66.25;51.50;;;;;7.99;54.71;99988.47;4978057;28;8843;-65
2021/03/04 08:30:42;;;;;;;;;55.00;40.67;;;;;8.08;53.63;99987.16;4979895;28;8838;-65
2021/03/04 08:33:15;;;;;;;;;60.50;47.50;;;;;8.15;53.43;99988.63;4997442;28;8881;-65
2021/03/04 08:35:49;;;;;;;;;52.25;41.00;;;;;8.30;53.21;99989.72;5012702;28;8876;-65
2021/03/04 08:38:19;;;;;;;;;68.25;52.00;;;;;8.40;52.47;99983.03;4996644;28;8854;-65
2021/03/04 08:40:55;;;;;;;;;69.25;48.25;;;;;8.36;52.93;99976.91;4997412;28;8870;-66
2021/03/04 08:43:27;;;;;;;;;64.50;51.50;;;;;8.74;54.03;99981.38;4997343;28;8848;-65
2021/03/04 08:46:04;;;;;;;;;71.00;52.00;;;;;8.89;53.81;99979.75;4997354;28;8841;-66
2021/03/04 08:48:32;;;;;;;;;77.50;56.50;;;;;9.09;52.76;99981.44;4996173;28;8837;-66
2021/03/04 08:51:06;;;;;;;;;88.00;65.50;;;;;9.59;52.10;99975.28;4997229;28;8878;-68
2021/03/04 08:53:35;;;;;;;;;67.00;54.00;;;;;9.40;52.94;99973.56;4996301;28;8856;-68
2021/03/04 08:56:05;;;;;;;;;73.75;54.75;;;;;9.47;53.41;99970.53;4980353;28;8848;-68
2021/03/04 08:58:43;;;;;;;;;75.50;55.75;;;;;9.67;52.35;99963.19;4996087;28;8848;-68
2021/03/04 09:01:14;;;;;;;;;71.33;51.33;;;;;9.81;52.83;99965.13;4997109;28;8848;-68
2021/03/04 09:03:43;;;;;;;;;66.67;50.67;;;;;9.93;52.53;99957.38;4997583;28;8855;-68
2021/03/04 09:06:18;;;;;;;;;77.33;55.00;;;;;10.25;52.13;99948.41;4997127;28;8959;-69
2021/03/04 09:08:47;;;;;;;;;71.33;54.67;;;;;10.49;51.62;99953.38;4996762;28;8871;-68
2021/03/04 09:11:36;;;;;;;;;68.67;53.33;;;;;10.66;51.18;99953.25;4996014;28;8981;-69
2021/03/04 09:14:13;;;;;;;;;99.75;77.25;;;;;10.72;51.19;99947.53;4997084;28;9795;-68
2021/03/04 09:16:48;;;;;;;;;71.67;54.00;;;;;10.87;51.68;99950.28;4977568;28;8842;-69
2021/03/04 09:19:39;;;;;;;;;66.33;49.67;;;;;10.84;51.49;99935.19;4976490;28;8855;-69
2021/03/04 09:22:10;;;;;;;;;74.00;53.00;;;;;11.20;51.15;99940.22;4977440;28;8920;-68
2021/03/04 09:24:40;;;;;;;;;64.00;49.33;;;;;11.37;49.63;99936.53;4976593;28;8888;-68
2021/03/04 09:27:09;;;;;;;;;63.67;49.67;;;;;11.49;49.85;99931.34;4977184;28;8846;-68
2021/03/04 09:29:40;;;;;;;;;67.33;52.00;;;;;11.51;49.84;99933.00;4976050;28;8878;-68
2021/03/04 09:32:09;;;;;;;;;67.67;50.67;;;;;11.46;50.16;99921.66;4976392;28;8889;-68
2021/03/04 09:34:44;;;;;;;;;71.00;52.00;;;;;11.38;50.11;99940.06;4977300;28;8940;-68
2021/03/04 09:37:16;;;;;;;;;65.00;49.67;;;;;11.61;49.80;99931.47;4975962;28;8879;-69
2021/03/04 09:39:47;;;;;;;;;66.33;50.33;;;;;11.61;50.07;99926.09;4975928;28;8851;-69
2021/03/04 09:42:20;;;;;;;;;66.00;50.00;;;;;11.84;49.05;99926.47;4977073;28;8858;-68
2021/03/04 09:44:54;;;;;;;;;66.67;51.00;;;;;11.98;49.40;99923.81;4976817;28;9677;-68
2021/03/04 09:47:26;;;;;;;;;63.33;48.00;;;;;12.08;47.38;99919.56;4976979;28;8846;-68
2021/03/04 09:49:55;;;;;;;;;66.67;50.00;;;;;12.10;48.86;99913.22;4976973;28;8909;-68
2021/03/04 09:52:31;;;;;;;;;57.33;44.67;;;;;12.13;48.19;99919.25;4975440;28;8881;-68
2021/03/04 09:55:15;;;;;;;;;63.00;47.67;;;;;12.08;46.73;99919.56;4976607;28;8865;-68
2021/03/04 09:57:45;;;;;;;;;61.67;49.00;;;;;12.10;47.10;99913.22;4995056;28;8950;-68
2021/03/04 10:00:26;;;;;;;;;64.33;51.67;;;;;12.07;47.02;99912.44;4990071;28;8831;-67
2021/03/04 10:02:56;;;;;;;;;73.67;55.67;;;;;12.30;46.67;99907.41;4991997;28;8875;-68
2021/03/04 10:05:27;;;;;;;;;70.33;52.33;;;;;12.07;47.24;99909.75;4995257;28;8923;-68
2021/03/04 10:07:57;;;;;;;;;77.33;57.67;;;;;12.14;47.89;99910.22;4979190;28;8859;-68
2021/03/04 10:10:24;;;;;;;;;66.33;49.00;;;;;11.96;48.46;99920.34;4985223;28;9576;-68
2021/03/04 10:12:58;;;;;;;;;62.67;47.67;;;;;11.83;48.75;99911.28;4976326;28;8866;-68
2021/03/04 10:15:40;;;;;;;;;60.33;47.67;;;;;11.86;48.88;99919.19;4986019;28;9570;-68
2021/03/04 10:18:14;;;;;;;;;66.67;49.33;;;;;11.89;48.81;99913.63;4995066;28;8972;-67
2021/03/04 10:20:45;;;;;;;;;66.33;46.33;;;;;12.02;48.67;99914.56;5001284;28;8860;-67
2021/03/04 10:23:14;;;;;;;;;91.75;76.50;;;;;11.99;48.80;99913.91;4993957;28;8824;-67
2021/03/04 10:25:46;;;;;;;;;70.67;52.67;;;;;12.07;49.49;99909.75;4994011;28;8852;-68
2021/03/04 10:28:16;;;;;;;;;63.33;50.33;;;;;12.53;47.79;99913.94;4986035;28;8849;-68
2021/03/04 10:30:42;;;;;;;;;62.67;48.00;;;;;12.66;47.31;99911.31;4975972;28;8974;-68
2021/03/04 10:33:11;;;;;;;;;65.00;51.00;;;;;12.63;48.60;99906.13;4989971;28;8951;-68
2021/03/04 10:35:38;;;;;;;;;69.00;52.33;;;;;12.60;47.55;99898.25;4988844;28;8858;-68
2021/03/04 10:38:06;;;;;;;;;62.33;49.33;;;;;12.66;48.75;99905.94;4993106;28;8832;-68
2021/03/04 10:40:33;;;;;;;;;79.67;60.67;;;;;12.63;48.18;99903.44;4993574;28;8896;-68
2021/03/04 10:43:04;;;;;;;;;67.00;51.00;;;;;12.57;48.04;99898.47;4994351;28;8856;-69
2021/03/04 10:45:31;;;;;;;;;60.67;45.00;;;;;12.40;47.39;99887.00;4994695;28;9622;-68
2021/03/04 10:47:58;;;;;;;;;57.33;43.67;;;;;12.40;47.29;99892.38;4994905;28;8871;-68
2021/03/04 10:50:27;;;;;;;;;63.33;45.00;;;;;12.56;47.47;99891.34;4994516;28;8886;-68
2021/03/04 10:52:55;;;;;;;;;59.00;45.33;;;;;12.77;46.98;99878.25;4994958;28;8968;-68
2021/03/04 10:55:37;;;;;;;;;62.33;48.00;;;;;12.69;46.72;99889.56;4993295;28;9660;-68
2021/03/04 10:58:04;;;;;;;;;57.00;43.67;;;;;12.83;46.34;99873.34;4958522;28;9623;-68
2021/03/04 11:00:31;;;;;;;;;63.33;45.67;;;;;12.85;46.53;99871.41;4982857;28;8836;-68
2021/03/04 11:02:58;;;;;;;;;62.00;46.00;;;;;12.96;45.29;99868.84;4993756;28;8872;-69
2021/03/04 11:05:25;;;;;;;;;52.00;44.00;;;;;13.11;45.40;99860.66;4994064;28;8848;-68
2021/03/04 11:07:52;;;;;;;;;62.00;46.33;;;;;13.37;45.52;99865.13;4994588;28;8844;-69
2021/03/04 11:10:19;;;;;;;;;60.33;45.67;;;;;13.22;45.20;99852.69;4994938;28;8866;-68
2021/03/04 11:12:48;;;;;;;;;61.00;43.67;;;;;13.35;45.57;99853.59;4994199;28;8876;-68
2021/03/04 11:15:16;;;;;;;;;63.67;47.67;;;;;13.26;44.17;99854.22;4985858;28;11642;-68
2021/03/04 11:17:44;;;;;;;;;58.33;42.33;;;;;13.51;44.73;99855.22;4975259;28;8843;-68
2021/03/04 11:20:12;;;;;;;;;60.67;48.33;;;;;13.55;43.74;99844.06;4993454;28;8852;-67
2021/03/04 11:22:39;;;;;;;;;61.00;44.33;;;;;13.48;43.79;99847.31;4994102;28;8882;-68
2021/03/04 11:25:07;;;;;;;;;78.00;59.33;;;;;13.66;44.70;99832.50;4994352;28;8856;-69
2021/03/04 11:27:34;;;;;;;;;67.00;47.33;;;;;13.34;44.03;99829.41;4994226;28;8852;-68
2021/03/04 11:30:01;;;;;;;;;63.00;47.67;;;;;13.20;44.89;99822.28;4993491;28;8844;-68
2021/03/04 11:32:28;;;;;;;;;66.00;50.00;;;;;13.50;44.78;99829.19;4993047;28;8860;-68
2021/03/04 11:34:55;;;;;;;;;64.00;48.00;;;;;13.61;44.42;99826.56;4993101;28;8829;-62
2021/03/04 11:37:22;;;;;;;;;64.33;50.33;;;;;13.12;44.97;99819.25;4993618;28;8840;-62
2021/03/04 11:39:50;;;;;;;;;64.00;47.67;;;;;13.18;45.80;99814.28;4992275;28;8884;-62
2021/03/04 11:42:17;;;;;;;;;62.00;48.67;;;;;13.24;45.61;99806.72;4992258;28;8833;-62
2021/03/04 11:44:49;;;;;;;;;65.33;47.67;;;;;13.33;45.81;99795.34;4994053;28;8852;-61